Time;durP1;ratioP1;P1;durP2;ratioP2;P2;SDS_P1;SDS_P2;PMS_P1;PMS_P2;Temp;Humidity;BMP_temperature;BMP_pressure;BME280_temperature;BME280_humidity;BME280_pressure;Samples;Min_cycle;Max_cycle;Signal;HPM_P1;HPM_P2
2022/03/17 00:01:23;;;;;;;66.25;30.08;;;;;;;8.73;61.00;95574.69;4933547;23;20079;-77
2022/03/17 00:03:49;;;;;;;84.40;41.80;;;;;;;8.78;60.86;95573.28;4912427;29;20496;-77
2022/03/17 00:06:14;;;;;;;73.53;34.55;;;;;;;8.74;61.16;95575.50;4915007;29;20036;-77
2022/03/17 00:08:40;;;;;;;56.33;28.55;;;;;;;8.81;60.58;95578.09;4898892;29;20059;-77
2022/03/17 00:11:06;;;;;;;46.80;23.25;;;;;;;8.80;61.11;95574.72;4898934;29;20095;-77
2022/03/17 00:13:31;;;;;;;75.93;34.10;;;;;;;8.85;61.43;95577.47;4929536;29;20028;-77
2022/03/17 00:15:57;;;;;;;77.50;38.28;;;;;;;8.83;61.63;95576.91;4914628;29;20036;-77
2022/03/17 00:18:22;;;;;;;81.53;37.47;;;;;;;8.80;61.41;95574.72;4882544;29;20035;-77
2022/03/17 00:20:48;;;;;;;77.15;33.38;;;;;;;8.77;62.11;95580.28;4898692;29;20512;-77
2022/03/17 00:23:13;;;;;;;79.80;36.38;;;;;;;8.67;62.04;95564.34;4914339;29;20484;-77
2022/03/17 00:25:39;;;;;;;73.38;33.72;;;;;;;8.74;61.85;95570.31;4915371;29;20424;-77
2022/03/17 00:28:04;;;;;;;69.97;29.20;;;;;;;8.69;62.33;95568.31;4914414;29;20032;-76
2022/03/17 00:30:30;;;;;;;71.03;30.25;;;;;;;8.68;61.98;95566.72;4898415;29;20028;-77
2022/03/17 00:32:55;;;;;;;42.42;22.17;;;;;;;8.77;61.95;95567.31;4914617;29;20114;-77
2022/03/17 00:35:36;;;;;;;55.67;25.98;;;;;;;8.84;61.18;95570.69;4914178;29;20516;-77
2022/03/17 00:38:02;;;;;;;84.28;37.28;;;;;;;8.81;61.83;95567.72;4914009;29;20370;-76
2022/03/17 00:40:28;;;;;;;113.80;46.70;;;;;;;8.82;61.97;95572.72;4914145;29;20040;-76
2022/03/17 00:42:55;;;;;;;115.63;46.05;;;;;;;8.82;61.30;95577.09;4898452;29;20100;-77
2022/03/17 00:45:22;;;;;;;84.78;34.97;;;;;;;8.82;61.55;95584.88;4913834;29;20040;-77
2022/03/17 00:47:47;;;;;;;58.72;26.17;;;;;;;8.80;62.48;95589.47;4914026;29;20036;-76
2022/03/17 00:50:13;;;;;;;19.48;13.40;;;;;;;8.76;60.88;95585.66;4923804;23;21569;-76
2022/03/17 00:52:38;;;;;;;24.85;15.40;;;;;;;8.63;61.82;95586.50;4905497;29;20040;-76
2022/03/17 00:55:05;;;;;;;21.83;14.05;;;;;;;8.42;62.28;95613.38;4905741;29;20515;-77
2022/03/17 00:57:32;;;;;;;33.15;15.70;;;;;;;7.71;65.39;95611.22;4872229;29;20032;-76
2022/03/17 00:59:57;;;;;;;25.70;16.25;;;;;;;6.71;69.39;95616.06;4903917;29;20043;-76
2022/03/17 01:02:23;;;;;;;29.42;16.92;;;;;;;6.39;71.78;95614.81;4903899;29;20032;-76
2022/03/17 01:04:48;;;;;;;25.17;15.63;;;;;;;6.32;71.85;95614.72;4904945;29;20031;-76
2022/03/17 01:07:13;;;;;;;21.85;15.18;;;;;;;6.20;71.50;95617.03;4904797;29;20092;-76
2022/03/17 01:09:39;;;;;;;24.33;14.48;;;;;;;6.12;70.26;95618.91;4902460;29;20032;-76
2022/03/17 01:12:05;;;;;;;17.85;13.23;;;;;;;6.18;70.11;95621.56;4901821;29;20031;-76
2022/03/17 01:19:28;;;;;;;30.88;7.50;;;;;;;5.93;67.62;95626.28;4956269;23;20044;-77
2022/03/17 01:21:54;;;;;;;10.48;7.80;;;;;;;5.93;68.45;95631.44;4913100;29;20469;-77
2022/03/17 01:24:20;;;;;;;9.77;7.18;;;;;;;6.09;67.95;95624.44;4914830;29;20546;-77
2022/03/17 01:26:45;;;;;;;8.77;6.90;;;;;;;6.10;67.05;95632.00;4914642;29;20046;-77
2022/03/17 01:29:11;;;;;;;27.73;15.45;;;;;;;6.21;67.05;95633.31;4914847;29;20032;-77
2022/03/17 01:31:36;;;;;;;11.85;7.40;;;;;;;6.24;65.66;95622.63;4879975;29;20040;-76
2022/03/17 01:34:03;;;;;;;9.18;5.97;;;;;;;6.26;65.94;95633.56;4914637;29;20084;-77
2022/03/17 01:36:29;;;;;;;8.05;5.65;;;;;;;6.29;66.24;95630.59;4914280;29;20062;-76
2022/03/17 01:38:54;;;;;;;6.82;4.82;;;;;;;6.35;65.18;95627.28;4914130;29;20067;-76
2022/03/17 01:41:20;;;;;;;5.72;4.60;;;;;;;6.42;64.60;95635.88;4913358;29;20087;-76
2022/03/17 01:43:45;;;;;;;5.22;4.68;;;;;;;6.26;65.92;95638.72;4912984;29;20040;-76
2022/03/17 01:46:14;;;;;;;5.65;5.07;;;;;;;6.37;64.89;95637.44;4897407;29;20044;-76
2022/03/17 01:48:40;;;;;;;5.13;4.18;;;;;;;6.27;65.57;95642.91;4912458;29;20020;-76
2022/03/17 01:51:05;;;;;;;5.63;4.85;;;;;;;6.24;65.87;95632.94;4913134;29;20415;-76
2022/03/17 01:53:31;;;;;;;8.05;5.00;;;;;;;6.35;65.59;95637.63;4912895;29;20040;-76
2022/03/17 01:55:58;;;;;;;5.43;4.85;;;;;;;6.41;65.14;95633.50;4913106;29;20032;-76
2022/03/17 01:58:24;;;;;;;6.95;5.78;;;;;;;6.48;65.39;95639.50;4882113;29;20055;-76
2022/03/17 02:00:50;;;;;;;7.93;5.32;;;;;;;6.57;65.32;95644.38;4896873;29;20071;-76
2022/03/17 02:03:15;;;;;;;5.80;5.30;;;;;;;6.69;64.51;95641.28;4882099;29;20469;-75
2022/03/17 02:05:40;;;;;;;6.57;5.47;;;;;;;6.85;64.45;95636.66;4912829;29;20523;-77
2022/03/17 02:08:10;;;;;;;5.93;5.10;;;;;;;6.95;64.55;95641.47;4913891;29;20044;-77
2022/03/17 02:13:19;;;;;;;9.05;7.63;;;;;;;7.07;64.59;95644.34;4913592;29;20098;-76
2022/03/17 02:15:50;;;;;;;8.95;7.03;;;;;;;7.03;64.41;95651.69;4896635;29;20656;-76
2022/03/17 02:18:16;;;;;;;10.18;6.35;;;;;;;6.92;64.55;95652.19;4896645;29;20036;-76
2022/03/17 02:20:42;;;;;;;10.85;7.20;;;;;;;6.98;64.78;95656.59;4896545;29;20127;-76
2022/03/17 02:25:55;;;;;;;10.80;6.95;;;;;;;7.16;63.99;95659.53;4912824;29;20047;-76
2022/03/17 02:28:20;;;;;;;8.18;6.90;;;;;;;7.25;63.82;95670.50;4912318;29;20024;-76
2022/03/17 02:30:46;;;;;;;10.48;7.07;;;;;;;7.18;64.12;95667.91;4896910;29;20426;-76
2022/03/17 02:33:15;;;;;;;7.60;6.60;;;;;;;7.11;64.31;95656.69;4896166;29;20051;-76
2022/03/17 02:35:41;;;;;;;7.82;6.18;;;;;;;7.00;65.01;95666.78;4897221;29;20038;-76
2022/03/17 02:38:07;;;;;;;6.85;6.10;;;;;;;6.83;65.16;95668.81;4881278;29;20025;-76
2022/03/17 02:40:33;;;;;;;6.93;6.22;;;;;;;6.72;65.90;95671.94;4912753;29;20071;-77
2022/03/17 02:42:59;;;;;;;8.07;6.53;;;;;;;6.78;66.11;95676.34;4896997;29;20405;-76
2022/03/17 02:45:25;;;;;;;7.63;6.82;;;;;;;6.85;66.25;95669.44;4896430;29;20036;-77
2022/03/17 02:47:51;;;;;;;9.70;6.72;;;;;;;6.87;66.05;95670.06;4896738;29;20489;-77
2022/03/17 02:50:16;;;;;;;7.57;6.78;;;;;;;6.99;65.54;95675.50;4910756;29;20028;-76
2022/03/17 02:52:42;;;;;;;10.65;7.45;;;;;;;7.01;65.76;95665.78;4913185;29;20040;-77
2022/03/17 02:55:09;;;;;;;8.32;7.43;;;;;;;7.00;65.81;95680.50;4913358;29;20043;-76
2022/03/17 02:57:36;;;;;;;8.32;5.88;;;;;;;6.91;65.08;95684.19;4911503;29;20032;-77
2022/03/17 03:00:03;;;;;;;6.13;5.50;;;;;;;6.92;64.80;95683.22;4897043;29;20111;-77
2022/03/17 03:02:30;;;;;;;6.55;5.78;;;;;;;6.95;64.62;95690.59;4912194;29;20044;-77
2022/03/17 03:04:55;;;;;;;5.38;4.88;;;;;;;6.91;63.42;95691.97;4913163;29;20030;-77
2022/03/17 03:07:21;;;;;;;8.55;5.22;;;;;;;6.84;64.07;95691.13;4911747;29;20040;-77
2022/03/17 03:09:46;;;;;;;6.65;5.47;;;;;;;6.94;63.93;95686.41;4912118;29;20083;-77
2022/03/17 03:12:12;;;;;;;7.97;5.40;;;;;;;6.84;63.18;95685.94;4896339;29;20476;-77
2022/03/17 03:14:37;;;;;;;6.10;5.35;;;;;;;6.85;63.52;95682.38;4896284;29;20040;-77
2022/03/17 03:17:03;;;;;;;6.63;5.32;;;;;;;6.87;63.25;95701.09;4911498;29;20035;-77
2022/03/17 03:19:28;;;;;;;6.43;5.85;;;;;;;6.93;63.56;95703.72;4896160;29;20540;-77
2022/03/17 03:21:54;;;;;;;6.60;5.63;;;;;;;6.80;62.79;95701.00;4896395;29;20044;-77
2022/03/17 03:24:20;;;;;;;12.10;6.32;;;;;;;6.75;62.82;95703.38;4913906;29;20039;-77
2022/03/17 03:26:45;;;;;;;7.80;6.00;;;;;;;6.62;63.68;95698.88;4895901;29;20060;-77
2022/03/17 03:29:21;;;;;;;6.18;5.60;;;;;;;6.55;63.73;95698.03;4912282;29;20472;-77
2022/03/17 03:31:46;;;;;;;7.70;5.97;;;;;;;6.34;64.36;95700.56;4911592;29;20468;-77
2022/03/17 03:34:12;;;;;;;6.50;5.78;;;;;;;6.37;63.80;95705.41;4896400;29;20063;-77
2022/03/17 03:39:21;;;;;;;6.90;6.13;;;;;;;6.23;63.65;95706.25;4898492;29;20083;-77
2022/03/17 03:41:47;;;;;;;8.45;7.03;;;;;;;6.32;63.86;95705.94;4899029;29;20036;-77
2022/03/17 03:44:15;;;;;;;8.05;6.88;;;;;;;6.12;63.37;95717.03;4915109;29;20500;-76
2022/03/17 03:46:41;;;;;;;10.43;8.27;;;;;;;5.90;64.16;95713.63;4899826;29;20064;-76
2022/03/17 03:49:06;;;;;;;8.80;7.68;;;;;;;5.83;64.32;95710.91;4915194;29;20460;-76
2022/03/17 03:51:32;;;;;;;10.68;8.18;;;;;;;5.77;64.56;95719.38;4915893;29;20095;-76
2022/03/17 03:54:13;;;;;;;10.00;9.00;;;;;;;5.68;64.89;95723.00;4898403;29;20028;-77
2022/03/17 03:56:48;;;;;;;11.23;9.38;;;;;;;5.72;64.53;95735.41;4914782;29;20032;-77
2022/03/17 03:59:17;;;;;;;13.23;9.27;;;;;;;5.71;64.82;95727.84;4914822;29;20036;-76
2022/03/17 04:01:43;;;;;;;11.07;9.38;;;;;;;5.68;65.18;95734.13;4899533;29;20054;-76
2022/03/17 04:04:08;;;;;;;13.70;10.48;;;;;;;5.61;64.77;95740.19;4914602;29;20405;-76
2022/03/17 04:06:40;;;;;;;14.68;10.43;;;;;;;5.55;65.02;95738.34;4915710;29;20496;-76
2022/03/17 04:09:05;;;;;;;13.60;11.18;;;;;;;5.54;64.92;95739.31;4885023;29;20417;-76
2022/03/17 04:11:31;;;;;;;13.00;10.20;;;;;;;5.55;65.35;95741.72;4916189;29;20115;-75
2022/03/17 04:13:56;;;;;;;13.50;10.38;;;;;;;5.65;65.61;95749.19;4915741;29;20076;-75
2022/03/17 04:16:22;;;;;;;13.50;10.70;;;;;;;5.64;64.81;95750.97;4883011;29;20036;-76
2022/03/17 04:18:47;;;;;;;13.57;10.93;;;;;;;5.74;65.02;95755.88;4898590;29;20040;-77
2022/03/17 04:21:13;;;;;;;14.35;11.07;;;;;;;5.78;64.57;95764.84;4914623;29;20040;-77
2022/03/17 04:23:38;;;;;;;15.60;11.25;;;;;;;5.65;64.57;95772.41;4898831;29;20088;-77
2022/03/17 04:26:03;;;;;;;12.85;10.77;;;;;;;5.49;65.66;95778.53;4915729;29;20043;-77
2022/03/17 04:28:29;;;;;;;15.55;11.27;;;;;;;5.43;65.59;95790.34;4898797;29;20428;-77
2022/03/17 04:30:54;;;;;;;16.88;11.52;;;;;;;5.45;66.33;95786.81;4914472;29;20067;-77
2022/03/17 04:33:20;;;;;;;13.85;11.48;;;;;;;5.55;65.70;95785.56;4914653;29;20420;-77
2022/03/17 04:35:45;;;;;;;13.15;11.02;;;;;;;5.60;65.70;95790.19;4914164;29;20036;-76
2022/03/17 04:38:10;;;;;;;15.02;11.48;;;;;;;5.72;65.57;95793.97;4914229;29;20039;-76
2022/03/17 04:40:36;;;;;;;17.02;11.77;;;;;;;5.62;65.77;95786.47;4882764;29;20024;-76
2022/03/17 04:43:01;;;;;;;15.77;11.38;;;;;;;5.67;66.14;95797.03;4898421;29;20492;-77
2022/03/17 04:45:27;;;;;;;12.35;10.95;;;;;;;5.67;65.31;95793.66;4898411;29;20520;-77
2022/03/17 04:47:52;;;;;;;14.85;11.07;;;;;;;5.65;65.86;95793.03;4914338;29;20544;-76
2022/03/17 04:50:18;;;;;;;18.45;11.52;;;;;;;5.53;65.53;95797.03;4915072;29;20043;-77
2022/03/17 04:55:27;;;;;;;15.10;12.00;;;;;;;5.41;66.72;95797.47;4920324;29;20111;-77
2022/03/17 04:57:52;;;;;;;15.25;11.93;;;;;;;5.53;66.28;95815.09;4917332;29;20035;-77
2022/03/17 05:00:17;;;;;;;16.17;11.60;;;;;;;5.43;65.87;95811.00;4917446;29;20035;-77
2022/03/17 05:02:43;;;;;;;14.60;11.25;;;;;;;5.23;66.43;95812.47;4915723;29;20476;-77
2022/03/17 05:05:08;;;;;;;17.42;11.23;;;;;;;5.25;66.67;95815.66;4915294;29;20036;-77
2022/03/17 05:07:34;;;;;;;14.02;10.85;;;;;;;5.18;66.66;95827.63;4917504;29;20127;-77
2022/03/17 05:09:59;;;;;;;13.07;10.32;;;;;;;5.26;66.52;95826.78;4916921;29;20454;-76
2022/03/17 05:12:25;;;;;;;12.95;10.57;;;;;;;5.21;66.17;95822.16;4916479;29;20032;-77
2022/03/17 05:14:50;;;;;;;14.95;10.82;;;;;;;5.15;66.71;95835.72;4915623;29;20496;-76
2022/03/17 05:17:16;;;;;;;12.55;10.32;;;;;;;5.19;66.13;95836.16;4899038;29;20039;-76
2022/03/17 05:19:41;;;;;;;11.43;9.65;;;;;;;5.06;66.35;95847.88;4882221;29;20043;-77
2022/03/17 05:22:07;;;;;;;14.18;9.98;;;;;;;5.21;65.69;95847.94;4914354;29;20043;-76
2022/03/17 05:24:33;;;;;;;15.30;10.05;;;;;;;5.10;66.48;95845.75;4913496;29;20028;-76
2022/03/17 05:26:59;;;;;;;11.70;8.90;;;;;;;5.07;66.39;95851.25;4912902;29;20036;-76
2022/03/17 05:29:24;;;;;;;12.45;10.25;;;;;;;5.14;66.66;95854.75;4912635;29;20090;-76
2022/03/17 05:31:50;;;;;;;10.25;8.90;;;;;;;5.12;65.90;95849.75;4897336;29;20420;-77
2022/03/17 05:34:15;;;;;;;12.18;9.13;;;;;;;5.11;66.56;95847.34;4898810;29;20036;-77
2022/03/17 05:36:41;;;;;;;10.43;8.77;;;;;;;5.25;65.68;95862.09;4914598;29;20111;-76
2022/03/17 05:39:06;;;;;;;10.55;9.02;;;;;;;5.38;64.86;95859.72;4914022;29;20071;-77
2022/03/17 05:41:32;;;;;;;12.95;9.48;;;;;;;5.28;65.21;95861.72;4914586;29;20123;-77
2022/03/17 05:43:57;;;;;;;11.32;8.45;;;;;;;5.40;65.16;95872.44;4913405;29;20048;-77
2022/03/17 05:46:25;;;;;;;34.47;10.45;;;;;;;5.43;64.48;95877.25;4897979;29;20050;-77
2022/03/17 05:48:51;;;;;;;11.15;8.40;;;;;;;5.48;64.36;95884.47;4913716;29;20111;-77
2022/03/17 05:51:16;;;;;;;11.68;9.05;;;;;;;5.19;65.47;95880.00;4880855;29;20115;-76
2022/03/17 05:53:42;;;;;;;11.68;8.43;;;;;;;5.14;64.82;95890.84;4897349;29;20100;-77
2022/03/17 05:56:07;;;;;;;14.27;9.05;;;;;;;5.15;65.56;95896.78;4896941;29;20131;-76
2022/03/17 05:58:33;;;;;;;9.57;7.85;;;;;;;5.12;65.40;95898.75;4898222;29;20044;-76
2022/03/17 06:00:59;;;;;;;10.43;7.63;;;;;;;5.10;65.45;95900.69;4914253;29;20035;-77
2022/03/17 06:03:25;;;;;;;11.85;8.68;;;;;;;5.16;64.95;95896.63;4891292;29;20036;-76
2022/03/17 06:05:50;;;;;;;8.95;7.57;;;;;;;5.09;65.18;95896.50;4912900;29;20055;-77
2022/03/17 06:08:16;;;;;;;10.10;7.72;;;;;;;4.90;66.19;95902.13;4913002;29;20028;-76
2022/03/17 06:10:41;;;;;;;11.45;7.95;;;;;;;4.91;66.53;95897.75;4913393;29;20509;-78
2022/03/17 06:13:07;;;;;;;7.75;6.68;;;;;;;4.94;66.11;95900.00;4897095;29;20079;-78
2022/03/17 06:15:36;;;;;;;10.65;7.72;;;;;;;5.11;66.10;95898.91;4913658;29;20044;-76
2022/03/17 06:18:03;;;;;;;10.93;7.40;;;;;;;5.20;65.46;95903.03;4897397;29;20114;-77
2022/03/17 06:20:30;;;;;;;9.85;7.55;;;;;;;5.32;65.50;95906.03;4911764;29;20532;-77
2022/03/17 06:22:57;;;;;;;10.77;7.55;;;;;;;5.41;65.31;95915.31;4913484;29;20036;-77
2022/03/17 06:25:23;;;;;;;9.95;7.55;;;;;;;5.34;65.25;95919.53;4913441;29;20476;-77
2022/03/17 06:27:49;;;;;;;8.55;7.05;;;;;;;5.41;65.59;95921.28;4911755;29;20035;-78
2022/03/17 06:30:16;;;;;;;11.43;8.40;;;;;;;5.49;64.38;95917.81;4912677;29;20035;-77
2022/03/17 06:32:41;;;;;;;11.38;8.50;;;;;;;5.50;64.28;95919.44;4914118;29;20047;-77
2022/03/17 06:35:11;;;;;;;10.88;8.50;;;;;;;5.60;64.77;95914.84;4897386;29;20032;-77
2022/03/17 06:37:37;;;;;;;13.93;8.27;;;;;;;5.69;64.09;95934.47;4898517;29;20055;-77
2022/03/17 06:40:06;;;;;;;13.77;8.18;;;;;;;5.85;64.17;95925.75;4914794;29;20131;-77
2022/03/17 06:42:32;;;;;;;12.38;7.53;;;;;;;5.91;63.65;95943.16;4898478;29;20397;-77
2022/03/17 06:44:58;;;;;;;10.93;7.35;;;;;;;5.84;63.68;95942.22;4896651;29;20124;-77
2022/03/17 06:47:23;;;;;;;10.82;7.78;;;;;;;5.87;63.16;95941.91;4896466;29;20512;-77
2022/03/17 06:49:48;;;;;;;8.50;7.60;;;;;;;5.91;63.35;95943.16;4912143;29;20028;-77
2022/03/17 06:52:14;;;;;;;8.48;7.25;;;;;;;5.95;64.08;95939.25;4896550;29;20051;-77
2022/03/17 06:54:39;;;;;;;9.38;7.47;;;;;;;5.91;63.61;95943.16;4913625;29;20551;-77
2022/03/17 06:57:05;;;;;;;8.48;7.22;;;;;;;5.88;63.47;95946.06;4912316;29;20488;-77
2022/03/17 06:59:30;;;;;;;9.35;7.57;;;;;;;5.90;63.69;95949.31;4912183;29;20036;-77
2022/03/17 07:01:56;;;;;;;12.15;7.85;;;;;;;6.05;63.01;95956.28;4896455;29;20036;-77
2022/03/17 07:04:21;;;;;;;13.10;7.45;;;;;;;6.04;62.47;95962.44;4913737;29;20036;-77
2022/03/17 07:06:46;;;;;;;10.90;7.38;;;;;;;5.88;62.90;95963.34;4897038;29;20040;-78
2022/03/17 07:09:13;;;;;;;9.90;7.50;;;;;;;5.81;63.10;95968.38;4914255;29;20048;-78
2022/03/17 07:11:39;;;;;;;15.48;7.57;;;;;;;5.89;63.93;95965.75;4913620;29;20184;-78
2022/03/17 07:14:04;;;;;;;8.27;7.25;;;;;;;5.95;62.92;95964.28;4912049;29;20040;-77
2022/03/17 07:16:30;;;;;;;10.35;7.97;;;;;;;5.86;62.99;95971.25;4911289;29;20064;-77
2022/03/17 07:18:55;;;;;;;9.57;7.90;;;;;;;5.80;62.77;95977.09;4912139;29;20039;-77
2022/03/17 07:21:21;;;;;;;10.73;8.20;;;;;;;5.57;64.29;95966.00;4912431;29;20028;-77
2022/03/17 07:23:46;;;;;;;10.38;8.35;;;;;;;5.45;64.10;95969.94;4896918;29;20036;-78
2022/03/17 07:26:12;;;;;;;9.77;8.00;;;;;;;5.58;65.03;95977.91;4896141;29;20044;-78
2022/03/17 07:28:37;;;;;;;15.52;7.97;;;;;;;5.47;64.70;95979.09;4913300;29;20412;-77
2022/03/17 07:31:03;;;;;;;13.90;9.15;;;;;;;5.35;65.04;95981.28;4911877;29;20073;-77
2022/03/17 07:33:28;;;;;;;13.13;9.07;;;;;;;5.50;65.37;95983.91;4911583;29;20039;-77
2022/03/17 07:35:54;;;;;;;10.98;8.52;;;;;;;5.69;64.28;95987.81;4895063;29;20052;-77
2022/03/17 07:38:19;;;;;;;14.30;9.30;;;;;;;5.72;62.91;95984.91;4895701;29;20044;-77
2022/03/17 07:40:46;;;;;;;12.68;9.48;;;;;;;5.60;63.92;95992.25;4895908;29;20111;-77
2022/03/17 07:43:12;;;;;;;15.73;10.07;;;;;;;5.66;63.41;95995.91;4913113;29;20099;-78
2022/03/17 07:45:37;;;;;;;11.98;9.80;;;;;;;5.38;64.21;95993.84;4895546;29;20517;-77
2022/03/17 07:48:03;;;;;;;13.10;9.95;;;;;;;5.33;65.42;95990.97;4895410;29;20036;-77
2022/03/17 07:50:32;;;;;;;13.60;10.95;;;;;;;5.34;65.53;95987.41;4896528;29;20028;-77
2022/03/17 07:52:58;;;;;;;16.63;10.48;;;;;;;5.30;65.01;95995.66;4895999;29;20040;-77
2022/03/17 07:55:24;;;;;;;15.23;10.48;;;;;;;5.35;64.93;95988.22;4896092;29;20033;-77
2022/03/17 07:57:49;;;;;;;19.02;10.52;;;;;;;5.43;65.18;95995.91;4911777;29;20532;-77
2022/03/17 08:00:15;;;;;;;15.30;11.52;;;;;;;5.09;64.62;95994.47;4895742;29;20032;-77
2022/03/17 08:02:41;;;;;;;15.80;12.38;;;;;;;5.04;65.86;95985.63;4910973;29;20073;-77
2022/03/17 08:05:06;;;;;;;14.70;11.73;;;;;;;5.37;65.80;95992.25;4911173;29;20032;-77
2022/03/17 08:07:32;;;;;;;16.40;11.30;;;;;;;5.29;64.12;96000.00;4911129;29;20032;-78
2022/03/17 08:09:58;;;;;;;18.70;11.68;;;;;;;5.09;63.05;95996.25;4911222;29;20038;-77
2022/03/17 08:12:26;;;;;;;19.08;13.05;;;;;;;4.91;64.82;95993.13;4912198;29;20046;-77
2022/03/17 08:14:55;;;;;;;15.50;12.25;;;;;;;4.85;65.58;95991.19;4911046;29;20047;-77
2022/03/17 08:17:20;;;;;;;19.50;12.70;;;;;;;4.90;64.80;95986.34;4895439;29;20485;-76
2022/03/17 08:19:46;;;;;;;15.52;11.63;;;;;;;5.31;63.58;95992.09;4896591;29;20060;-77
2022/03/17 08:22:11;;;;;;;13.15;11.27;;;;;;;5.42;63.31;95995.09;4911997;29;20112;-77
2022/03/17 08:24:37;;;;;;;15.82;11.65;;;;;;;5.38;62.36;95986.13;4911515;29;20046;-77
2022/03/17 08:27:03;;;;;;;17.73;12.60;;;;;;;5.54;63.71;95989.56;4881467;29;20032;-77
2022/03/17 08:29:29;;;;;;;15.88;11.85;;;;;;;5.80;62.16;96002.09;4913753;29;20047;-76
2022/03/17 08:31:55;;;;;;;15.85;11.73;;;;;;;6.04;61.60;95996.00;4913948;29;20127;-77
2022/03/17 08:34:20;;;;;;;18.17;11.60;;;;;;;6.13;61.67;95997.53;4915305;29;20131;-77
2022/03/17 08:36:46;;;;;;;14.38;11.15;;;;;;;6.22;60.50;96006.81;4898164;29;20040;-77
2022/03/17 08:39:12;;;;;;;14.48;11.27;;;;;;;6.47;59.65;95995.25;4914438;29;20519;-77
2022/03/17 08:41:38;;;;;;;17.45;12.07;;;;;;;6.35;60.12;95999.28;4914552;29;20111;-77
2022/03/17 08:44:03;;;;;;;15.68;11.57;;;;;;;6.51;59.65;96001.69;4898644;29;20117;-77
2022/03/17 08:49:18;;;;;;;19.48;11.90;;;;;;;6.22;60.46;96001.66;4915574;29;20073;-77
2022/03/17 08:51:46;;;;;;;17.52;12.52;;;;;;;5.75;62.77;95994.91;4914445;29;20068;-77
2022/03/17 08:54:11;;;;;;;14.07;11.18;;;;;;;5.97;61.97;96006.19;4901097;29;20036;-78
2022/03/17 08:56:37;;;;;;;16.60;11.93;;;;;;;6.09;61.28;96002.22;4933223;29;20039;-78
2022/03/17 08:59:03;;;;;;;14.93;11.90;;;;;;;6.06;61.03;96014.69;4917357;29;20523;-78
2022/03/17 09:01:29;;;;;;;18.40;12.60;;;;;;;5.90;61.07;96019.00;4917190;29;20056;-78
2022/03/17 09:03:55;;;;;;;17.00;11.52;;;;;;;5.95;61.37;96016.72;4918858;29;20051;-78
2022/03/17 09:06:21;;;;;;;21.77;13.52;;;;;;;6.01;61.86;96021.16;4910031;29;20036;-78
2022/03/17 09:08:47;;;;;;;16.73;12.50;;;;;;;5.95;62.38;96016.72;4915745;29;20040;-78
2022/03/17 09:11:13;;;;;;;14.38;10.70;;;;;;;5.76;62.46;96030.03;4914436;29;20046;-78
2022/03/17 09:13:39;;;;;;;14.43;11.40;;;;;;;5.70;62.89;96023.81;4882638;29;20040;-78
2022/03/17 09:16:05;;;;;;;17.20;10.48;;;;;;;5.75;62.80;96031.03;4914633;29;20040;-78
2022/03/17 09:18:31;;;;;;;13.63;10.48;;;;;;;5.86;62.49;96032.41;4921235;29;20039;-77
2022/03/17 09:20:56;;;;;;;16.90;9.88;;;;;;;5.78;63.36;96035.84;4882797;29;20033;-78
2022/03/17 09:23:22;;;;;;;12.65;9.07;;;;;;;5.89;63.29;96037.22;4898405;29;20498;-77
2022/03/17 09:25:47;;;;;;;10.68;9.13;;;;;;;6.03;63.71;96046.03;4915100;29;20032;-78
2022/03/17 09:28:14;;;;;;;12.75;8.77;;;;;;;6.32;61.49;96043.50;4914448;29;20048;-78
2022/03/17 09:30:40;;;;;;;11.75;8.68;;;;;;;6.50;60.85;96041.41;4916727;29;20083;-78
2022/03/17 09:33:06;;;;;;;10.57;8.70;;;;;;;6.59;60.84;96050.69;4920055;29;20048;-78
2022/03/17 09:35:32;;;;;;;11.57;9.38;;;;;;;6.87;60.53;96050.09;5467224;23;20060;-77
2022/03/17 09:37:57;;;;;;;11.45;8.30;;;;;;;7.01;59.13;96048.50;4905892;29;20280;-77
2022/03/17 09:40:23;;;;;;;12.77;9.82;;;;;;;7.08;58.71;96054.56;4903423;29;20072;-78
2022/03/17 09:42:48;;;;;;;12.93;8.68;;;;;;;7.18;59.04;96058.47;4912484;29;20032;-79
2022/03/17 09:45:14;;;;;;;15.60;10.07;;;;;;;7.22;58.24;96058.91;4873569;29;20036;-77
2022/03/17 09:47:41;;;;;;;21.23;11.85;;;;;;;7.27;57.15;96053.19;4905708;29;20036;-78
2022/03/17 09:50:09;;;;;;;12.43;9.68;;;;;;;7.23;58.02;96056.16;4890710;29;20524;-77
2022/03/17 09:52:39;;;;;;;12.70;9.35;;;;;;;7.34;57.76;96060.06;4884633;23;20518;-77
2022/03/17 09:55:06;;;;;;;15.68;10.02;;;;;;;7.26;57.13;96059.34;4914359;29;20037;-77
2022/03/17 09:57:31;;;;;;;38.22;21.42;;;;;;;7.14;58.23;96054.63;4913473;29;20072;-77
2022/03/17 09:59:58;;;;;;;16.92;12.35;;;;;;;7.21;58.16;96060.72;4898129;29;20119;-78
2022/03/17 10:02:24;;;;;;;14.48;10.35;;;;;;;7.31;57.52;96059.59;4899128;29;20408;-78
2022/03/17 10:04:49;;;;;;;11.98;8.95;;;;;;;7.40;57.59;96055.94;4948445;23;20510;-78
2022/03/17 10:07:17;;;;;;;14.70;10.77;;;;;;;7.31;57.08;96062.19;4932159;29;20118;-77
2022/03/17 10:09:43;;;;;;;8.50;6.38;;;;;;;7.11;56.21;96067.13;4927961;29;20092;-77
2022/03/17 10:12:10;;;;;;;6.63;6.03;;;;;;;7.18;55.24;96066.25;4923407;29;20475;-78
2022/03/17 10:14:40;;;;;;;6.85;6.15;;;;;;;6.60;56.39;96070.41;4906596;29;20051;-78
2022/03/17 10:17:07;;;;;;;11.00;7.38;;;;;;;6.76;56.14;96066.84;4923880;29;20036;-78
2022/03/17 10:19:33;;;;;;;15.63;7.43;;;;;;;6.82;54.89;96075.66;4906872;29;20136;-78
2022/03/17 10:22:12;;;;;;;6.65;5.85;;;;;;;6.37;55.86;96072.22;4923581;29;20538;-78
2022/03/17 10:24:39;;;;;;;7.55;6.75;;;;;;;6.15;57.04;96073.03;4944554;29;20449;-78
2022/03/17 10:29:36;;;;;;;8.90;7.32;;;;;;;6.26;57.37;96075.22;4929811;23;20059;-78
2022/03/17 10:32:06;;;;;;;16.55;8.02;;;;;;;6.47;57.08;96075.34;4895726;29;20099;-77
2022/03/17 10:34:47;;;;;;;9.00;6.85;;;;;;;6.50;56.81;96077.59;4912040;29;20051;-77
2022/03/17 10:37:16;;;;;;;9.70;7.95;;;;;;;6.43;56.25;96075.88;4912091;29;20180;-78
2022/03/17 10:39:45;;;;;;;11.68;8.32;;;;;;;6.36;56.63;96073.22;4911880;29;20055;-78
2022/03/17 10:42:11;;;;;;;9.25;7.82;;;;;;;6.27;56.72;96069.06;4914270;29;20036;-77
2022/03/17 10:44:40;;;;;;;9.20;7.13;;;;;;;6.22;56.65;96068.81;4912548;29;20028;-76
2022/03/17 10:47:06;;;;;;;8.55;7.38;;;;;;;6.22;56.50;96067.03;4895450;29;20043;-76
2022/03/17 10:49:33;;;;;;;8.13;7.32;;;;;;;5.93;56.70;96065.13;4912167;29;20056;-75
2022/03/17 10:51:59;;;;;;;9.18;8.02;;;;;;;5.64;58.44;96059.78;4912749;29;20035;-75
2022/03/17 10:54:24;;;;;;;9.80;7.85;;;;;;;5.39;58.73;96065.09;4911984;29;20028;-76
2022/03/17 10:57:05;;;;;;;8.35;7.55;;;;;;;5.58;59.32;96066.44;4895677;29;20043;-77
2022/03/17 10:59:44;;;;;;;17.25;12.07;;;;;;;5.81;59.77;96071.63;4911403;29;20035;-76
2022/03/17 11:02:14;;;;;;;8.15;7.05;;;;;;;6.00;57.84;96072.97;4910685;29;20029;-75
2022/03/17 11:04:40;;;;;;;9.00;8.05;;;;;;;6.17;58.19;96065.91;4912303;29;20476;-75
2022/03/17 11:07:10;;;;;;;11.15;7.70;;;;;;;6.26;57.38;96067.47;4879804;29;20187;-76
2022/03/17 11:09:38;;;;;;;10.43;8.48;;;;;;;6.26;57.21;96060.53;4894067;29;20036;-75
2022/03/17 11:12:05;;;;;;;8.93;7.60;;;;;;;6.25;57.03;96071.03;4893620;29;20040;-75
2022/03/17 11:14:31;;;;;;;10.90;8.05;;;;;;;5.68;58.71;96066.22;4909449;29;20036;-76
2022/03/17 11:16:58;;;;;;;8.65;7.43;;;;;;;5.70;58.67;96059.94;4911600;29;20032;-75
2022/03/17 11:19:23;;;;;;;14.70;9.07;;;;;;;5.77;59.17;96062.63;4895450;29;20105;-75
2022/03/17 11:21:58;;;;;;;11.95;9.18;;;;;;;5.98;58.81;96062.03;4879860;29;20497;-71
2022/03/17 11:24:23;;;;;;;10.88;7.57;;;;;;;6.13;58.43;96060.31;4896159;29;20044;-71
2022/03/17 11:26:51;;;;;;;9.93;8.57;;;;;;;6.15;56.81;96067.88;4911796;29;20427;-71
2022/03/17 11:29:25;;;;;;;9.38;8.43;;;;;;;6.22;56.05;96061.06;4910705;29;20036;-71
2022/03/17 11:31:57;;;;;;;9.68;7.63;;;;;;;6.37;56.16;96056.72;4911951;29;20095;-71
2022/03/17 11:34:38;;;;;;;13.68;8.50;;;;;;;6.48;55.58;96058.06;4911232;29;20512;-71
2022/03/17 11:37:16;;;;;;;12.43;8.40;;;;;;;6.68;55.79;96053.22;4909693;29;20508;-71
2022/03/17 11:39:58;;;;;;;11.80;8.77;;;;;;;6.87;54.32;96052.69;4910992;29;20043;-71
2022/03/17 11:42:33;;;;;;;12.65;8.57;;;;;;;6.91;54.80;96043.59;4894923;29;20044;-71
2022/03/17 11:45:08;;;;;;;12.52;9.05;;;;;;;6.75;55.46;96048.94;4911883;29;20040;-71
2022/03/17 11:47:36;;;;;;;18.98;9.60;;;;;;;6.79;56.05;96047.59;4910995;29;20052;-71
2022/03/17 11:50:22;;;;;;;14.02;8.65;;;;;;;6.58;55.99;96043.94;4911887;29;20021;-71